sensor_id;sensor_type;location;lat;lon;timestamp;pressure;altitude;pressure_sealevel;temperature
15709;BMP180;7954;51.914;8.420;2023-05-07T00:01:28;100387.56;;;22.82
15709;BMP180;7954;51.914;8.420;2023-05-07T00:03:56;100388.69;;;22.77
15709;BMP180;7954;51.914;8.420;2023-05-07T00:06:26;100384.25;;;22.76
15709;BMP180;7954;51.914;8.420;2023-05-07T00:08:56;100371.97;;;22.67
15709;BMP180;7954;51.914;8.420;2023-05-07T00:11:24;100381.34;;;22.66
15709;BMP180;7954;51.914;8.420;2023-05-07T00:13:53;100373.63;;;22.66
15709;BMP180;7954;51.914;8.420;2023-05-07T00:16:23;100381.34;;;22.66
15709;BMP180;7954;51.914;8.420;2023-05-07T00:18:52;100383.56;;;22.63
15709;BMP180;7954;51.914;8.420;2023-05-07T00:21:20;100390.19;;;22.62
15709;BMP180;7954;51.914;8.420;2023-05-07T00:23:48;100389.09;;;22.60
15709;BMP180;7954;51.914;8.420;2023-05-07T00:26:16;100397.72;;;22.60
15709;BMP180;7954;51.914;8.420;2023-05-07T00:28:45;100400.13;;;22.59
15709;BMP180;7954;51.914;8.420;2023-05-07T00:31:13;100404.38;;;22.58
15709;BMP180;7954;51.914;8.420;2023-05-07T00:33:42;100403.25;;;22.56
15709;BMP180;7954;51.914;8.420;2023-05-07T00:36:10;100400.69;;;22.56
15709;BMP180;7954;51.914;8.420;2023-05-07T00:38:38;100392.78;;;22.55
15709;BMP180;7954;51.914;8.420;2023-05-07T00:41:05;100393.16;;;22.51
15709;BMP180;7954;51.914;8.420;2023-05-07T00:43:33;100384.72;;;22.45
15709;BMP180;7954;51.914;8.420;2023-05-07T00:46:01;100396.28;;;22.34
15709;BMP180;7954;51.914;8.420;2023-05-07T00:48:30;100395.56;;;22.35
15709;BMP180;7954;51.914;8.420;2023-05-07T00:50:59;100390.59;;;22.37
15709;BMP180;7954;51.914;8.420;2023-05-07T00:53:27;100400.53;;;22.34
15709;BMP180;7954;51.914;8.420;2023-05-07T00:55:55;100402.38;;;22.35
15709;BMP180;7954;51.914;8.420;2023-05-07T00:58:23;100400.16;;;22.38
15709;BMP180;7954;51.914;8.420;2023-05-07T01:00:51;100400.88;;;22.37
15709;BMP180;7954;51.914;8.420;2023-05-07T01:03:20;100404.22;;;22.36
15709;BMP180;7954;51.914;8.420;2023-05-07T01:05:49;100400.53;;;22.34
15709;BMP180;7954;51.914;8.420;2023-05-07T01:08:20;100407.53;;;22.35
15709;BMP180;7954;51.914;8.420;2023-05-07T01:10:52;100416.31;;;22.37
15709;BMP180;7954;51.914;8.420;2023-05-07T01:13:20;100410.81;;;22.34
15709;BMP180;7954;51.914;8.420;2023-05-07T01:15:49;100408.63;;;22.30
15709;BMP180;7954;51.914;8.420;2023-05-07T01:18:16;100402.75;;;22.31
15709;BMP180;7954;51.914;8.420;2023-05-07T01:20:45;100401.09;;;22.31
15709;BMP180;7954;51.914;8.420;2023-05-07T01:23:15;100406.06;;;22.30
15709;BMP180;7954;51.914;8.420;2023-05-07T01:25:51;100410.47;;;22.31
15709;BMP180;7954;51.914;8.420;2023-05-07T01:28:19;100406.00;;;22.23
15709;BMP180;7954;51.914;8.420;2023-05-07T01:30:52;100412.09;;;22.23
15709;BMP180;7954;51.914;8.420;2023-05-07T01:33:21;100404.00;;;22.13
15709;BMP180;7954;51.914;8.420;2023-05-07T01:35:53;100398.28;;;22.09
15709;BMP180;7954;51.914;8.420;2023-05-07T01:38:23;100398.28;;;22.09
15709;BMP180;7954;51.914;8.420;2023-05-07T01:40:51;100395.19;;;22.11
15709;BMP180;7954;51.914;8.420;2023-05-07T01:43:19;100397.19;;;22.07
15709;BMP180;7954;51.914;8.420;2023-05-07T01:45:48;100382.28;;;22.04
15709;BMP180;7954;51.914;8.420;2023-05-07T01:48:17;100392.97;;;22.00
15709;BMP180;7954;51.914;8.420;2023-05-07T01:50:46;100397.94;;;21.99
15709;BMP180;7954;51.914;8.420;2023-05-07T01:53:15;100405.44;;;21.91
15709;BMP180;7954;51.914;8.420;2023-05-07T01:55:45;100409.88;;;21.92
15709;BMP180;7954;51.914;8.420;2023-05-07T01:58:14;100399.56;;;21.92
15709;BMP180;7954;51.914;8.420;2023-05-07T02:00:42;100411.31;;;21.90
15709;BMP180;7954;51.914;8.420;2023-05-07T02:03:10;100413.16;;;21.91
15709;BMP180;7954;51.914;8.420;2023-05-07T02:05:38;100403.78;;;21.84
15709;BMP180;7954;51.914;8.420;2023-05-07T02:08:06;100405.25;;;21.75
15709;BMP180;7954;51.914;8.420;2023-05-07T02:10:34;100405.94;;;21.67
15709;BMP180;7954;51.914;8.420;2023-05-07T02:13:03;100408.53;;;21.67
15709;BMP180;7954;51.914;8.420;2023-05-07T02:15:32;100412.19;;;21.62
15709;BMP180;7954;51.914;8.420;2023-05-07T02:18:01;100428.38;;;21.61
15709;BMP180;7954;51.914;8.420;2023-05-07T02:20:29;100423.56;;;21.57
15709;BMP180;7954;51.914;8.420;2023-05-07T02:22:57;100411.47;;;21.56
15709;BMP180;7954;51.914;8.420;2023-05-07T02:25:25;100417.69;;;21.51
15709;BMP180;7954;51.914;8.420;2023-05-07T02:27:53;100415.41;;;21.47
15709;BMP180;7954;51.914;8.420;2023-05-07T02:30:22;100429.16;;;21.41
15709;BMP180;7954;51.914;8.420;2023-05-07T02:32:51;100416.09;;;21.32
15709;BMP180;7954;51.914;8.420;2023-05-07T02:35:19;100422.00;;;21.32
15709;BMP180;7954;51.914;8.420;2023-05-07T02:37:48;100418.66;;;21.32
15709;BMP180;7954;51.914;8.420;2023-05-07T02:40:16;100422.00;;;21.32
15709;BMP180;7954;51.914;8.420;2023-05-07T02:42:44;100414.06;;;21.30
15709;BMP180;7954;51.914;8.420;2023-05-07T02:45:12;100422.72;;;21.31
15709;BMP180;7954;51.914;8.420;2023-05-07T02:47:42;100421.59;;;21.29
15709;BMP180;7954;51.914;8.420;2023-05-07T02:50:10;100419.22;;;21.30
15709;BMP180;7954;51.914;8.420;2023-05-07T02:52:38;100416.47;;;21.29
15709;BMP180;7954;51.914;8.420;2023-05-07T02:55:07;100424.88;;;21.28
15709;BMP180;7954;51.914;8.420;2023-05-07T02:57:35;100429.13;;;21.27
15709;BMP180;7954;51.914;8.420;2023-05-07T03:00:13;100426.00;;;21.30
15709;BMP180;7954;51.914;8.420;2023-05-07T03:02:43;100427.13;;;21.32
15709;BMP180;7954;51.914;8.420;2023-05-07T03:05:12;100421.06;;;21.31
15709;BMP180;7954;51.914;8.420;2023-05-07T03:07:41;100423.81;;;21.32
15709;BMP180;7954;51.914;8.420;2023-05-07T03:10:11;100419.97;;;21.29
15709;BMP180;7954;51.914;8.420;2023-05-07T03:12:40;100423.06;;;21.27
15709;BMP180;7954;51.914;8.420;2023-05-07T03:15:08;100432.78;;;21.22
15709;BMP180;7954;51.914;8.420;2023-05-07T03:17:36;100425.97;;;21.23
15709;BMP180;7954;51.914;8.420;2023-05-07T03:20:08;100427.63;;;21.22
15709;BMP180;7954;51.914;8.420;2023-05-07T03:22:36;100418.47;;;21.24
15709;BMP180;7954;51.914;8.420;2023-05-07T03:25:05;100408.34;;;21.19
15709;BMP180;7954;51.914;8.420;2023-05-07T03:27:34;100412.34;;;21.10
15709;BMP180;7954;51.914;8.420;2023-05-07T03:30:04;100400.22;;;21.09
15709;BMP180;7954;51.914;8.420;2023-05-07T03:32:33;100418.94;;;21.08
15709;BMP180;7954;51.914;8.420;2023-05-07T03:35:02;100419.69;;;21.07
15709;BMP180;7954;51.914;8.420;2023-05-07T03:37:31;100405.13;;;21.00
15709;BMP180;7954;51.914;8.420;2023-05-07T03:39:59;100415.94;;;20.98
15709;BMP180;7954;51.914;8.420;2023-05-07T03:42:30;100414.84;;;20.96
15709;BMP180;7954;51.914;8.420;2023-05-07T03:44:58;100414.84;;;20.96
15709;BMP180;7954;51.914;8.420;2023-05-07T03:47:27;100419.81;;;20.94
15709;BMP180;7954;51.914;8.420;2023-05-07T03:49:55;100424.72;;;20.93
15709;BMP180;7954;51.914;8.420;2023-05-07T03:52:23;100431.88;;;20.95
15709;BMP180;7954;51.914;8.420;2023-05-07T03:54:53;100441.63;;;20.98
15709;BMP180;7954;51.914;8.420;2023-05-07T03:57:21;100428.78;;;20.98
15709;BMP180;7954;51.914;8.420;2023-05-07T03:59:49;100426.22;;;20.98
15709;BMP180;7954;51.914;8.420;2023-05-07T04:02:17;100439.28;;;20.99
15709;BMP180;7954;51.914;8.420;2023-05-07T04:04:45;100439.81;;;20.97
15709;BMP180;7954;51.914;8.420;2023-05-07T04:07:13;100448.06;;;21.01
15709;BMP180;7954;51.914;8.420;2023-05-07T04:09:41;100449.34;;;20.98
15709;BMP180;7954;51.914;8.420;2023-05-07T04:12:12;100446.75;;;20.98
15709;BMP180;7954;51.914;8.420;2023-05-07T04:14:40;100450.09;;;20.97
15709;BMP180;7954;51.914;8.420;2023-05-07T04:17:07;100454.47;;;20.98
15709;BMP180;7954;51.914;8.420;2023-05-07T04:19:36;100457.03;;;20.98
15709;BMP180;7954;51.914;8.420;2023-05-07T04:22:04;100455.78;;;21.01
15709;BMP180;7954;51.914;8.420;2023-05-07T04:24:32;100477.25;;;21.02
15709;BMP180;7954;51.914;8.420;2023-05-07T04:27:00;100460.38;;;21.04
15709;BMP180;7954;51.914;8.420;2023-05-07T04:29:30;100469.75;;;21.03
15709;BMP180;7954;51.914;8.420;2023-05-07T04:31:58;100487.31;;;21.00
15709;BMP180;7954;51.914;8.420;2023-05-07T04:34:26;100465.31;;;21.02
15709;BMP180;7954;51.914;8.420;2023-05-07T04:36:53;100481.47;;;21.01
15709;BMP180;7954;51.914;8.420;2023-05-07T04:39:21;100461.09;;;21.03
15709;BMP180;7954;51.914;8.420;2023-05-07T04:41:49;100466.78;;;21.00
15709;BMP180;7954;51.914;8.420;2023-05-07T04:44:17;100483.50;;;21.04
15709;BMP180;7954;51.914;8.420;2023-05-07T04:46:47;100466.59;;;20.99
15709;BMP180;7954;51.914;8.420;2023-05-07T04:49:14;100463.66;;;21.03
15709;BMP180;7954;51.914;8.420;2023-05-07T04:51:42;100464.44;;;21.09
15709;BMP180;7954;51.914;8.420;2023-05-07T04:54:10;100456.59;;;21.14
15709;BMP180;7954;51.914;8.420;2023-05-07T04:56:38;100452.00;;;21.12
15709;BMP180;7954;51.914;8.420;2023-05-07T04:59:06;100465.94;;;21.14
15709;BMP180;7954;51.914;8.420;2023-05-07T05:01:33;100465.44;;;21.23
15709;BMP180;7954;51.914;8.420;2023-05-07T05:04:03;100468.78;;;21.29
15709;BMP180;7954;51.914;8.420;2023-05-07T05:06:31;100464.91;;;21.32
15709;BMP180;7954;51.914;8.420;2023-05-07T05:09:00;100474.34;;;21.39
15709;BMP180;7954;51.914;8.420;2023-05-07T05:11:28;100473.69;;;21.54
15709;BMP180;7954;51.914;8.420;2023-05-07T05:13:56;100490.44;;;21.64
15709;BMP180;7954;51.914;8.420;2023-05-07T05:16:25;100474.81;;;21.70
15709;BMP180;7954;51.914;8.420;2023-05-07T05:18:52;100480.53;;;21.74
15709;BMP180;7954;51.914;8.420;2023-05-07T05:21:22;100489.00;;;21.80
15709;BMP180;7954;51.914;8.420;2023-05-07T05:23:50;100475.06;;;21.92
15709;BMP180;7954;51.914;8.420;2023-05-07T05:26:19;100476.53;;;21.97
15709;BMP180;7954;51.914;8.420;2023-05-07T05:28:47;100475.09;;;21.99
15709;BMP180;7954;51.914;8.420;2023-05-07T05:31:16;100476.94;;;22.00
15709;BMP180;7954;51.914;8.420;2023-05-07T05:33:46;100474.16;;;21.92
15709;BMP180;7954;51.914;8.420;2023-05-07T05:36:14;100476.72;;;21.92
15709;BMP180;7954;51.914;8.420;2023-05-07T05:38:45;100479.47;;;21.93
15709;BMP180;7954;51.914;8.420;2023-05-07T05:41:13;100474.19;;;22.05
15709;BMP180;7954;51.914;8.420;2023-05-07T05:43:41;100482.81;;;22.13
15709;BMP180;7954;51.914;8.420;2023-05-07T05:46:09;100484.28;;;22.18
15709;BMP180;7954;51.914;8.420;2023-05-07T05:48:38;100491.09;;;22.24
15709;BMP180;7954;51.914;8.420;2023-05-07T05:51:06;100485.84;;;22.30
15709;BMP180;7954;51.914;8.420;2023-05-07T05:53:34;100491.19;;;22.38
15709;BMP180;7954;51.914;8.420;2023-05-07T05:56:03;100485.66;;;22.42
15709;BMP180;7954;51.914;8.420;2023-05-07T05:58:32;100492.09;;;22.46
15709;BMP180;7954;51.914;8.420;2023-05-07T06:01:00;100483.59;;;22.47
15709;BMP180;7954;51.914;8.420;2023-05-07T06:03:29;100482.50;;;22.52
15709;BMP180;7954;51.914;8.420;2023-05-07T06:05:56;100481.97;;;22.61
15709;BMP180;7954;51.914;8.420;2023-05-07T06:08:24;100485.44;;;22.62
15709;BMP180;7954;51.914;8.420;2023-05-07T06:10:54;100492.44;;;22.63
15709;BMP180;7954;51.914;8.420;2023-05-07T06:13:24;100479.75;;;22.64
15709;BMP180;7954;51.914;8.420;2023-05-07T06:15:52;100488.56;;;22.59
15709;BMP180;7954;51.914;8.420;2023-05-07T06:18:20;100488.41;;;22.58
15709;BMP180;7954;51.914;8.420;2023-05-07T06:20:48;100484.91;;;22.57
15709;BMP180;7954;51.914;8.420;2023-05-07T06:23:16;100496.50;;;22.61
15709;BMP180;7954;51.914;8.420;2023-05-07T06:25:48;100493.94;;;22.61
15709;BMP180;7954;51.914;8.420;2023-05-07T06:28:16;100507.00;;;22.62
15709;BMP180;7954;51.914;8.420;2023-05-07T06:30:46;100505.69;;;22.65
15709;BMP180;7954;51.914;8.420;2023-05-07T06:33:16;100507.50;;;22.66
15709;BMP180;7954;51.914;8.420;2023-05-07T06:35:46;100511.38;;;22.70
15709;BMP180;7954;51.914;8.420;2023-05-07T06:38:14;100509.75;;;22.70
15709;BMP180;7954;51.914;8.420;2023-05-07T06:40:41;100510.81;;;22.72
15709;BMP180;7954;51.914;8.420;2023-05-07T06:43:09;100517.44;;;22.77
15709;BMP180;7954;51.914;8.420;2023-05-07T06:45:37;100509.72;;;22.84
15709;BMP180;7954;51.914;8.420;2023-05-07T06:48:06;100520.03;;;22.84
15709;BMP180;7954;51.914;8.420;2023-05-07T06:50:35;100521.31;;;22.88
15709;BMP180;7954;51.914;8.420;2023-05-07T06:53:03;100526.09;;;22.99
15709;BMP180;7954;51.914;8.420;2023-05-07T06:55:31;100530.31;;;23.12
15709;BMP180;7954;51.914;8.420;2023-05-07T06:57:59;100530.31;;;23.26
15709;BMP180;7954;51.914;8.420;2023-05-07T07:00:27;100520.13;;;23.48
15709;BMP180;7954;51.914;8.420;2023-05-07T07:02:55;100520.44;;;23.58
15709;BMP180;7954;51.914;8.420;2023-05-07T07:05:25;100524.28;;;23.76
15709;BMP180;7954;51.914;8.420;2023-05-07T07:07:53;100520.50;;;23.88
15709;BMP180;7954;51.914;8.420;2023-05-07T07:10:21;100527.03;;;24.06
15709;BMP180;7954;51.914;8.420;2023-05-07T07:12:50;100521.25;;;24.23
15709;BMP180;7954;51.914;8.420;2023-05-07T07:15:19;100531.88;;;24.33
15709;BMP180;7954;51.914;8.420;2023-05-07T07:17:48;100525.69;;;24.46
15709;BMP180;7954;51.914;8.420;2023-05-07T07:20:17;100531.72;;;24.54
15709;BMP180;7954;51.914;8.420;2023-05-07T07:22:48;100534.56;;;24.70
15709;BMP180;7954;51.914;8.420;2023-05-07T07:25:16;100538.03;;;24.71
15709;BMP180;7954;51.914;8.420;2023-05-07T07:27:44;100530.06;;;24.76
15709;BMP180;7954;51.914;8.420;2023-05-07T07:30:13;100533.16;;;24.81
15709;BMP180;7954;51.914;8.420;2023-05-07T07:32:41;100533.84;;;24.87
15709;BMP180;7954;51.914;8.420;2023-05-07T07:35:10;100527.53;;;24.92
15709;BMP180;7954;51.914;8.420;2023-05-07T07:37:38;100523.63;;;24.95
15709;BMP180;7954;51.914;8.420;2023-05-07T07:40:09;100522.72;;;24.95
15709;BMP180;7954;51.914;8.420;2023-05-07T07:42:38;100524.63;;;24.89
15709;BMP180;7954;51.914;8.420;2023-05-07T07:45:07;100524.53;;;24.96
15709;BMP180;7954;51.914;8.420;2023-05-07T07:47:35;100528.03;;;24.96
15709;BMP180;7954;51.914;8.420;2023-05-07T07:50:04;100523.34;;;25.08
15709;BMP180;7954;51.914;8.420;2023-05-07T07:52:33;100525.03;;;25.23
15709;BMP180;7954;51.914;8.420;2023-05-07T07:55:01;100522.66;;;25.39
15709;BMP180;7954;51.914;8.420;2023-05-07T07:57:31;100517.56;;;25.48
15709;BMP180;7954;51.914;8.420;2023-05-07T07:59:59;100521.06;;;25.48
15709;BMP180;7954;51.914;8.420;2023-05-07T08:02:27;100527.66;;;25.53
15709;BMP180;7954;51.914;8.420;2023-05-07T08:04:55;100530.66;;;25.49
15709;BMP180;7954;51.914;8.420;2023-05-07T08:07:23;100528.63;;;25.62
15709;BMP180;7954;51.914;8.420;2023-05-07T08:09:50;100511.94;;;25.67
15709;BMP180;7954;51.914;8.420;2023-05-07T08:12:18;100517.31;;;25.84
15709;BMP180;7954;51.914;8.420;2023-05-07T08:14:49;100518.56;;;25.88
15709;BMP180;7954;51.914;8.420;2023-05-07T08:17:18;100519.25;;;26.02
15709;BMP180;7954;51.914;8.420;2023-05-07T08:19:50;100505.66;;;26.11
15709;BMP180;7954;51.914;8.420;2023-05-07T08:22:18;100508.81;;;26.33
15709;BMP180;7954;51.914;8.420;2023-05-07T08:24:46;100513.81;;;26.47
15709;BMP180;7954;51.914;8.420;2023-05-07T08:27:13;100512.97;;;26.55
15709;BMP180;7954;51.914;8.420;2023-05-07T08:29:41;100513.47;;;26.67
15709;BMP180;7954;51.914;8.420;2023-05-07T08:32:15;100521.44;;;26.77
15709;BMP180;7954;51.914;8.420;2023-05-07T08:34:43;100521.13;;;26.98
15709;BMP180;7954;51.914;8.420;2023-05-07T08:37:11;100517.69;;;27.23
15709;BMP180;7954;51.914;8.420;2023-05-07T08:39:39;100512.22;;;27.37
15709;BMP180;7954;51.914;8.420;2023-05-07T08:42:09;100510.84;;;27.40
15709;BMP180;7954;51.914;8.420;2023-05-07T08:44:38;100508.88;;;27.46
15709;BMP180;7954;51.914;8.420;2023-05-07T08:47:06;100507.50;;;27.50
15709;BMP180;7954;51.914;8.420;2023-05-07T08:49:38;100506.94;;;27.61
15709;BMP180;7954;51.914;8.420;2023-05-07T08:52:06;100509.38;;;27.59
15709;BMP180;7954;51.914;8.420;2023-05-07T08:54:37;100509.94;;;27.57
15709;BMP180;7954;51.914;8.420;2023-05-07T08:57:04;100519.00;;;27.60
15709;BMP180;7954;51.914;8.420;2023-05-07T08:59:33;100523.75;;;27.64
15709;BMP180;7954;51.914;8.420;2023-05-07T09:02:09;100520.84;;;27.78
15709;BMP180;7954;51.914;8.420;2023-05-07T09:04:39;100520.09;;;27.88
15709;BMP180;7954;51.914;8.420;2023-05-07T09:07:07;100520.66;;;28.10
15709;BMP180;7954;51.914;8.420;2023-05-07T09:09:35;100513.22;;;28.22
15709;BMP180;7954;51.914;8.420;2023-05-07T09:12:03;100521.59;;;28.28
15709;BMP180;7954;51.914;8.420;2023-05-07T09:14:31;100514.53;;;28.44
15709;BMP180;7954;51.914;8.420;2023-05-07T09:16:59;100519.56;;;28.59
15709;BMP180;7954;51.914;8.420;2023-05-07T09:19:27;100521.09;;;28.57
15709;BMP180;7954;51.914;8.420;2023-05-07T09:22:00;100505.31;;;28.64
15709;BMP180;7954;51.914;8.420;2023-05-07T09:24:29;100513.56;;;28.60
15709;BMP180;7954;51.914;8.420;2023-05-07T09:27:01;100512.31;;;28.65
15709;BMP180;7954;51.914;8.420;2023-05-07T09:29:30;100513.53;;;28.68
15709;BMP180;7954;51.914;8.420;2023-05-07T09:32:03;100511.56;;;28.66
15709;BMP180;7954;51.914;8.420;2023-05-07T09:34:32;100516.91;;;28.67
15709;BMP180;7954;51.914;8.420;2023-05-07T09:37:02;100518.16;;;28.62
15709;BMP180;7954;51.914;8.420;2023-05-07T09:39:41;100507.13;;;28.65
15709;BMP180;7954;51.914;8.420;2023-05-07T09:42:10;100508.09;;;28.57
15709;BMP180;7954;51.914;8.420;2023-05-07T09:44:38;100501.66;;;28.62
15709;BMP180;7954;51.914;8.420;2023-05-07T09:47:07;100511.09;;;28.70
15709;BMP180;7954;51.914;8.420;2023-05-07T09:49:36;100500.84;;;28.71
15709;BMP180;7954;51.914;8.420;2023-05-07T09:52:06;100497.47;;;28.72
15709;BMP180;7954;51.914;8.420;2023-05-07T09:54:36;100498.72;;;28.76
15709;BMP180;7954;51.914;8.420;2023-05-07T09:57:05;100500.38;;;28.84
15709;BMP180;7954;51.914;8.420;2023-05-07T09:59:34;100503.53;;;28.90
15709;BMP180;7954;51.914;8.420;2023-05-07T10:02:04;100502.00;;;28.92
15709;BMP180;7954;51.914;8.420;2023-05-07T10:04:33;100509.06;;;28.93
15709;BMP180;7954;51.914;8.420;2023-05-07T10:07:03;100506.00;;;28.88
15709;BMP180;7954;51.914;8.420;2023-05-07T10:09:34;100521.47;;;28.87
15709;BMP180;7954;51.914;8.420;2023-05-07T10:12:05;100513.63;;;28.95
15709;BMP180;7954;51.914;8.420;2023-05-07T10:14:35;100518.91;;;29.14
15709;BMP180;7954;51.914;8.420;2023-05-07T10:17:04;100521.78;;;29.17
15709;BMP180;7954;51.914;8.420;2023-05-07T10:19:32;100518.09;;;29.15
15709;BMP180;7954;51.914;8.420;2023-05-07T10:22:04;100515.91;;;29.27
15709;BMP180;7954;51.914;8.420;2023-05-07T10:24:36;100516.63;;;29.43
15709;BMP180;7954;51.914;8.420;2023-05-07T10:27:08;100513.66;;;29.49
15709;BMP180;7954;51.914;8.420;2023-05-07T10:29:41;100511.75;;;29.56
15709;BMP180;7954;51.914;8.420;2023-05-07T10:32:36;100512.47;;;29.64
15709;BMP180;7954;51.914;8.420;2023-05-07T10:35:10;100503.25;;;29.67
15709;BMP180;7954;51.914;8.420;2023-05-07T10:37:38;100505.38;;;29.71
15709;BMP180;7954;51.914;8.420;2023-05-07T10:40:10;100512.59;;;29.65
15709;BMP180;7954;51.914;8.420;2023-05-07T10:42:38;100505.09;;;29.68
15709;BMP180;7954;51.914;8.420;2023-05-07T10:45:13;100502.97;;;29.83
15709;BMP180;7954;51.914;8.420;2023-05-07T10:48:10;100499.19;;;29.97
15709;BMP180;7954;51.914;8.420;2023-05-07T10:51:18;100496.69;;;30.17
15709;BMP180;7954;51.914;8.420;2023-05-07T10:53:47;100504.66;;;30.19
15709;BMP180;7954;51.914;8.420;2023-05-07T10:56:26;100508.13;;;30.09
15709;BMP180;7954;51.914;8.420;2023-05-07T10:59:35;100504.38;;;30.16
15709;BMP180;7954;51.914;8.420;2023-05-07T11:02:09;100503.09;;;30.21
15709;BMP180;7954;51.914;8.420;2023-05-07T11:04:38;100500.25;;;30.18
15709;BMP180;7954;51.914;8.420;2023-05-07T11:07:26;100506.13;;;30.25
15709;BMP180;7954;51.914;8.420;2023-05-07T11:10:04;100504.16;;;30.23
15709;BMP180;7954;51.914;8.420;2023-05-07T11:12:52;100495.34;;;30.31
15709;BMP180;7954;51.914;8.420;2023-05-07T11:15:44;100501.22;;;30.38
15709;BMP180;7954;51.914;8.420;2023-05-07T11:18:14;100506.91;;;30.43
15709;BMP180;7954;51.914;8.420;2023-05-07T11:20:50;100509.44;;;30.51
15709;BMP180;7954;51.914;8.420;2023-05-07T11:23:57;100498.88;;;30.59
15709;BMP180;7954;51.914;8.420;2023-05-07T11:26:29;100504.53;;;30.74
15709;BMP180;7954;51.914;8.420;2023-05-07T11:29:00;100495.56;;;30.80
15709;BMP180;7954;51.914;8.420;2023-05-07T11:31:28;100493.53;;;30.96
15709;BMP180;7954;51.914;8.420;2023-05-07T11:33:57;100499.66;;;30.97
15709;BMP180;7954;51.914;8.420;2023-05-07T11:36:30;100493.31;;;31.03
15709;BMP180;7954;51.914;8.420;2023-05-07T11:38:58;100484.19;;;31.08
15709;BMP180;7954;51.914;8.420;2023-05-07T11:41:33;100496.06;;;31.25
15709;BMP180;7954;51.914;8.420;2023-05-07T11:44:03;100486.94;;;31.39
15709;BMP180;7954;51.914;8.420;2023-05-07T11:46:32;100486.84;;;31.58
15709;BMP180;7954;51.914;8.420;2023-05-07T11:49:00;100480.75;;;31.79
15709;BMP180;7954;51.914;8.420;2023-05-07T11:51:28;100470.69;;;32.03
15709;BMP180;7954;51.914;8.420;2023-05-07T11:53:56;100472.38;;;32.12
15709;BMP180;7954;51.914;8.420;2023-05-07T11:56:25;100467.34;;;32.25
15709;BMP180;7954;51.914;8.420;2023-05-07T11:58:53;100475.75;;;32.21
15709;BMP180;7954;51.914;8.420;2023-05-07T12:01:23;100462.19;;;32.05
15709;BMP180;7954;51.914;8.420;2023-05-07T12:03:51;100465.03;;;31.98
15709;BMP180;7954;51.914;8.420;2023-05-07T12:06:19;100465.34;;;31.92
15709;BMP180;7954;51.914;8.420;2023-05-07T12:08:50;100471.88;;;31.96
15709;BMP180;7954;51.914;8.420;2023-05-07T12:11:22;100467.16;;;31.92
15709;BMP180;7954;51.914;8.420;2023-05-07T12:13:54;100462.75;;;31.82
15709;BMP180;7954;51.914;8.420;2023-05-07T12:16:32;100466.91;;;31.80
15709;BMP180;7954;51.914;8.420;2023-05-07T12:19:03;100470.81;;;31.85
15709;BMP180;7954;51.914;8.420;2023-05-07T12:21:31;100470.03;;;32.05
15709;BMP180;7954;51.914;8.420;2023-05-07T12:23:59;100466.34;;;32.13
15709;BMP180;7954;51.914;8.420;2023-05-07T12:26:27;100469.47;;;32.19
15709;BMP180;7954;51.914;8.420;2023-05-07T12:28:54;100468.44;;;32.17
15709;BMP180;7954;51.914;8.420;2023-05-07T12:31:26;100475.16;;;32.35
15709;BMP180;7954;51.914;8.420;2023-05-07T12:33:54;100477.78;;;32.66
15709;BMP180;7954;51.914;8.420;2023-05-07T12:36:22;100476.88;;;32.87
15709;BMP180;7954;51.914;8.420;2023-05-07T12:38:51;100485.41;;;33.60
15709;BMP180;7954;51.914;8.420;2023-05-07T12:41:19;100491.03;;;34.79
15709;BMP180;7954;51.914;8.420;2023-05-07T12:43:56;100485.78;;;36.13
15709;BMP180;7954;51.914;8.420;2023-05-07T12:46:23;100482.09;;;36.76
15709;BMP180;7954;51.914;8.420;2023-05-07T12:48:53;100465.22;;;38.12
15709;BMP180;7954;51.914;8.420;2023-05-07T12:51:22;100477.50;;;39.01
15709;BMP180;7954;51.914;8.420;2023-05-07T12:53:50;100473.66;;;39.75
15709;BMP180;7954;51.914;8.420;2023-05-07T12:56:18;100462.50;;;40.31
15709;BMP180;7954;51.914;8.420;2023-05-07T12:58:48;100450.22;;;40.16
15709;BMP180;7954;51.914;8.420;2023-05-07T13:01:16;100452.88;;;39.83
15709;BMP180;7954;51.914;8.420;2023-05-07T13:03:48;100461.88;;;39.53
15709;BMP180;7954;51.914;8.420;2023-05-07T13:06:18;100474.72;;;39.95
15709;BMP180;7954;51.914;8.420;2023-05-07T13:08:47;100469.91;;;40.56
15709;BMP180;7954;51.914;8.420;2023-05-07T13:11:15;100492.34;;;41.35
15709;BMP180;7954;51.914;8.420;2023-05-07T13:13:43;100489.56;;;42.10
15709;BMP180;7954;51.914;8.420;2023-05-07T13:16:11;100487.91;;;42.96
15709;BMP180;7954;51.914;8.420;2023-05-07T13:18:40;100481.25;;;44.01
15709;BMP180;7954;51.914;8.420;2023-05-07T13:21:10;100477.31;;;44.66
15709;BMP180;7954;51.914;8.420;2023-05-07T13:23:41;100477.13;;;44.89
15709;BMP180;7954;51.914;8.420;2023-05-07T13:26:09;100481.28;;;45.35
15709;BMP180;7954;51.914;8.420;2023-05-07T13:28:52;100472.31;;;45.96
15709;BMP180;7954;51.914;8.420;2023-05-07T13:31:20;100475.16;;;46.01
15709;BMP180;7954;51.914;8.420;2023-05-07T13:33:49;100471.25;;;45.57
15709;BMP180;7954;51.914;8.420;2023-05-07T13:36:17;100470.50;;;45.03
15709;BMP180;7954;51.914;8.420;2023-05-07T13:38:48;100473.00;;;44.44
15709;BMP180;7954;51.914;8.420;2023-05-07T13:41:16;100475.69;;;43.95
15709;BMP180;7954;51.914;8.420;2023-05-07T13:43:45;100464.94;;;43.43
15709;BMP180;7954;51.914;8.420;2023-05-07T13:46:13;100466.50;;;43.15
15709;BMP180;7954;51.914;8.420;2023-05-07T13:48:41;100476.00;;;43.09
15709;BMP180;7954;51.914;8.420;2023-05-07T13:51:09;100482.69;;;43.43
15709;BMP180;7954;51.914;8.420;2023-05-07T13:53:38;100468.75;;;43.75
15709;BMP180;7954;51.914;8.420;2023-05-07T13:56:07;100477.19;;;44.11
15709;BMP180;7954;51.914;8.420;2023-05-07T13:58:36;100462.22;;;44.15
15709;BMP180;7954;51.914;8.420;2023-05-07T14:01:22;100458.09;;;43.75
15709;BMP180;7954;51.914;8.420;2023-05-07T14:03:51;100463.06;;;43.41
15709;BMP180;7954;51.914;8.420;2023-05-07T14:06:18;100463.84;;;43.15
15709;BMP180;7954;51.914;8.420;2023-05-07T14:08:47;100469.59;;;42.82
15709;BMP180;7954;51.914;8.420;2023-05-07T14:11:17;100468.34;;;42.72
15709;BMP180;7954;51.914;8.420;2023-05-07T14:13:45;100467.31;;;42.91
15709;BMP180;7954;51.914;8.420;2023-05-07T14:16:13;100468.16;;;42.90
15709;BMP180;7954;51.914;8.420;2023-05-07T14:18:41;100468.03;;;42.65
15709;BMP180;7954;51.914;8.420;2023-05-07T14:21:09;100470.84;;;42.48
15709;BMP180;7954;51.914;8.420;2023-05-07T14:23:37;100474.75;;;42.35